Pagina principale
METAR-TAF:

METAR-TAF

Aeroporti :

Portorose, Slovenia

Aeroporto di Portorose-Secovlje

latitudine: 45-31N, longitudine: 013-34E, altezza: 95 m

Osservazione

Il bollettino è stato emesso 38 minuti fa, alle 11:30 UTC
Vento 2 kt da ovest
Temperature 12°C
Umidità 54%
Pressione 1011 hPa
Visibilità 10 km o più
nessuna nube inferiore a 1500 m e nessun cumulonembo

METAR: LJPZ 191130Z 27002KT CAVOK 12/03 Q1011

Ora: 13:08 (12:08 UTC)

Previsione

Il bollettino è stato emesso 1 ora e 8 minuti fa, alle 11:00 UTC
Previsione valida dal 19 alle 12 UTC al 19 alle 21 UTC
Vento 4 kt da nord-ovest
Visibilità 10 km o più
nessuna nube inferiore a 1500 m e nessun cumulonembo
Evoluzione graduale
dal 19 alle 17 UTC al 19 alle 18 UTC
Vento 5 kt da est/sud-est

TAF: LJPZ 191100Z 1912/1921 32004KT CAVOK BECMG 1917/1918 12005KT

Osservazioni e previsioni meteorologiche di più di 4000 aeroporti (messaggi METAR e TAF).

Le stazioni disponibili sono rappresentate dai dischi gialli e rossi sulla carta.

Puntare il mouse per vedere il nome della stazione.

Clicca sopra per visualizzare le osservazioni e previsioni meteorologiche.

Per cambiare la mappa : fare clic sui pulsanti verdi con una croce nera per ingrandire, il pulsante verde con un trattino per diminuire, o sulla freccia verde per le mappe adiacenti.


METAR-TAF: